Time;durP1;ratioP1;P1;durP2;ratioP2;P2;SDS_P1;SDS_P2;PMS_P1;PMS_P2;Temp;Humidity;BMP_temperature;BMP_pressure;BME280_temperature;BME280_humidity;BME280_pressure;Samples;Min_cycle;Max_cycle;Signal;HPM_P1;HPM_P2
2022/10/17 00:00:48;;;;;;;10.90;1.80;;;16.50;99.90;;;;;;5033642;28;20128;-83
2022/10/17 00:03:15;;;;;;;8.85;2.17;;;16.50;99.90;;;;;;5048902;28;20045;-83
2022/10/17 00:05:44;;;;;;;4.78;1.70;;;16.50;99.90;;;;;;5043888;28;20045;-84
2022/10/17 00:08:12;;;;;;;9.90;1.30;;;16.40;99.90;;;;;;5033933;28;20418;-83
2022/10/17 00:10:40;;;;;;;9.35;1.80;;;16.40;99.90;;;;;;5051849;28;20402;-83
2022/10/17 00:13:07;;;;;;;3.33;1.70;;;16.30;99.90;;;;;;5046708;28;20053;-83
2022/10/17 00:15:34;;;;;;;8.35;2.20;;;16.30;99.90;;;;;;5041211;28;20064;-84
2022/10/17 00:18:01;;;;;;;11.07;2.40;;;16.10;99.90;;;;;;5038041;28;20050;-83
2022/10/17 00:20:29;;;;;;;8.50;1.80;;;16.10;99.90;;;;;;5032994;28;20045;-83
2022/10/17 00:22:56;;;;;;;8.35;1.90;;;16.00;99.90;;;;;;5044050;28;20063;-84
2022/10/17 00:25:23;;;;;;;3.80;1.60;;;16.10;99.90;;;;;;5038840;28;20049;-83
2022/10/17 00:27:49;;;;;;;5.35;1.35;;;16.10;99.90;;;;;;5036468;28;20052;-83
2022/10/17 00:30:16;;;;;;;34.63;3.63;;;16.10;99.90;;;;;;5046928;28;20072;-84
2022/10/17 00:32:43;;;;;;;5.90;2.30;;;16.10;99.90;;;;;;5027029;28;20056;-84
2022/10/17 00:35:10;;;;;;;9.32;2.25;;;16.10;99.90;;;;;;5049997;28;20045;-83
2022/10/17 00:37:36;;;;;;;4.75;1.80;;;16.10;99.90;;;;;;5050043;28;20425;-83
2022/10/17 00:40:05;;;;;;;4.65;1.95;;;16.10;99.90;;;;;;5044050;28;20052;-85
2022/10/17 00:42:31;;;;;;;2.67;2.03;;;16.10;99.90;;;;;;5040486;28;20149;-85
2022/10/17 00:45:00;;;;;;;19.45;2.58;;;16.10;99.90;;;;;;5039953;28;20426;-83
2022/10/17 00:47:28;;;;;;;5.13;1.90;;;16.10;99.90;;;;;;5026104;28;20109;-84
2022/10/17 00:49:54;;;;;;;6.38;1.40;;;16.00;99.90;;;;;;5030474;28;20049;-84
2022/10/17 00:52:25;;;;;;;3.22;1.60;;;16.00;99.90;;;;;;5054321;28;20045;-84
2022/10/17 00:55:16;;;;;;;3.63;1.90;;;16.00;99.90;;;;;;5056725;28;20041;-83
2022/10/17 00:57:45;;;;;;;12.30;2.60;;;16.00;99.90;;;;;;5043925;28;20113;-83
2022/10/17 01:00:13;;;;;;;7.43;1.60;;;16.00;99.90;;;;;;5036271;28;20065;-83
2022/10/17 01:02:40;;;;;;;4.00;1.88;;;15.90;99.90;;;;;;5053362;28;20061;-85
2022/10/17 01:05:07;;;;;;;4.15;1.80;;;15.90;99.90;;;;;;5056490;28;20081;-85
2022/10/17 01:07:35;;;;;;;3.47;1.75;;;15.90;99.90;;;;;;5041604;28;20076;-84
2022/10/17 01:10:04;;;;;;;10.25;2.25;;;15.90;99.90;;;;;;5055824;28;20436;-84
2022/10/17 01:12:59;;;;;;;7.40;2.00;;;15.80;99.90;;;;;;5038242;28;20109;-83
2022/10/17 01:15:40;;;;;;;7.93;1.88;;;15.70;99.90;;;;;;5043864;28;20080;-84
2022/10/17 01:18:31;;;;;;;7.50;2.10;;;15.60;99.90;;;;;;5052239;28;20053;-84
2022/10/17 01:21:29;;;;;;;7.07;1.98;;;15.60;99.90;;;;;;5053580;28;20049;-84
2022/10/17 01:24:18;;;;;;;2.53;1.90;;;15.50;99.90;;;;;;5052052;28;20146;-85
2022/10/17 01:27:14;;;;;;;4.07;2.25;;;15.40;99.90;;;;;;5049219;28;20132;-85
2022/10/17 01:30:01;;;;;;;4.78;2.10;;;15.50;99.90;;;;;;5055917;28;20495;-84
2022/10/17 01:33:01;;;;;;;5.43;1.90;;;15.40;99.90;;;;;;5051607;28;20069;-84
2022/10/17 01:35:53;;;;;;;7.75;2.05;;;15.30;99.90;;;;;;5029750;28;20060;-84
2022/10/17 01:38:32;;;;;;;10.48;1.90;;;15.30;99.90;;;;;;5048806;28;20064;-85
2022/10/17 01:41:24;;;;;;;8.05;2.28;;;15.30;99.90;;;;;;5046052;28;20048;-84
2022/10/17 01:44:11;;;;;;;4.43;2.33;;;15.20;99.90;;;;;;5026008;28;20084;-85
2022/10/17 01:46:42;;;;;;;4.72;2.08;;;15.30;99.90;;;;;;5048901;28;20109;-83
2022/10/17 01:49:12;;;;;;;7.53;2.10;;;15.30;99.90;;;;;;5064077;28;20052;-84
2022/10/17 01:51:46;;;;;;;5.13;2.30;;;15.20;99.90;;;;;;5053222;28;20569;-83
2022/10/17 01:54:41;;;;;;;10.68;2.10;;;15.20;99.90;;;;;;5047938;28;20060;-84
2022/10/17 01:57:17;;;;;;;6.07;2.53;;;15.20;99.90;;;;;;5058028;28;20053;-84
2022/10/17 01:59:47;;;;;;;4.60;2.03;;;15.20;99.90;;;;;;5053072;28;20513;-84
2022/10/17 02:02:16;;;;;;;6.75;2.15;;;15.20;99.90;;;;;;5050283;28;20063;-83
2022/10/17 02:04:44;;;;;;;9.73;2.90;;;15.20;99.90;;;;;;5045411;28;20109;-83
2022/10/17 02:07:12;;;;;;;3.05;2.30;;;15.20;99.90;;;;;;5053153;28;20041;-84
2022/10/17 02:09:39;;;;;;;5.03;2.92;;;15.20;99.90;;;;;;5049288;28;20519;-83
2022/10/17 02:12:24;;;;;;;4.78;1.83;;;15.20;99.90;;;;;;5044422;28;20045;-83
2022/10/17 02:15:10;;;;;;;28.85;2.50;;;15.20;99.90;;;;;;5059614;28;20048;-84
2022/10/17 02:18:12;;;;;;;3.88;2.35;;;15.20;99.90;;;;;;5051357;28;20067;-84
2022/10/17 02:20:57;;;;;;;6.53;2.08;;;15.20;99.90;;;;;;5054377;28;20045;-84
2022/10/17 02:23:50;;;;;;;3.53;2.22;;;15.10;99.90;;;;;;5043124;28;20112;-83
2022/10/17 02:26:32;;;;;;;4.38;2.10;;;15.00;99.90;;;;;;5049711;28;20057;-84
2022/10/17 02:29:08;;;;;;;7.68;2.40;;;15.00;99.90;;;;;;5048033;28;20480;-85
2022/10/17 02:31:47;;;;;;;9.20;2.28;;;15.00;99.90;;;;;;5043849;28;20052;-83
2022/10/17 02:34:47;;;;;;;8.52;2.72;;;15.00;99.90;;;;;;5040451;28;20517;-83
2022/10/17 02:37:17;;;;;;;6.70;2.47;;;15.00;99.90;;;;;;5054410;28;20064;-83
2022/10/17 02:39:45;;;;;;;8.52;2.83;;;15.00;99.90;;;;;;5041776;28;20048;-84
2022/10/17 02:42:13;;;;;;;4.57;2.50;;;15.00;99.90;;;;;;5054632;28;20487;-84
2022/10/17 02:44:43;;;;;;;11.10;2.10;;;14.90;99.90;;;;;;5047478;28;20060;-85
2022/10/17 02:47:33;;;;;;;6.25;2.30;;;14.90;99.90;;;;;;5045354;28;20502;-84
2022/10/17 02:50:00;;;;;;;5.85;2.08;;;14.90;99.90;;;;;;5038040;28;20048;-84
2022/10/17 02:52:38;;;;;;;6.60;2.70;;;14.90;99.90;;;;;;5049578;28;20518;-84
2022/10/17 02:55:21;;;;;;;6.95;2.17;;;14.90;99.90;;;;;;5041214;28;20108;-84
2022/10/17 02:57:52;;;;;;;5.25;2.35;;;14.80;99.90;;;;;;5050293;28;20109;-84
2022/10/17 03:00:21;;;;;;;8.68;2.83;;;14.80;99.90;;;;;;5048999;28;20055;-84
2022/10/17 03:02:50;;;;;;;5.55;2.80;;;14.70;99.90;;;;;;5053788;28;20494;-84
2022/10/17 03:05:22;;;;;;;15.18;2.80;;;14.70;99.90;;;;;;5044140;28;20139;-84
2022/10/17 03:07:49;;;;;;;7.78;2.67;;;14.60;99.90;;;;;;5057351;28;20049;-84
2022/10/17 03:10:17;;;;;;;7.22;2.65;;;14.60;99.90;;;;;;5052380;28;20076;-84
2022/10/17 03:12:44;;;;;;;5.22;2.38;;;14.60;99.90;;;;;;5035721;28;20132;-84
2022/10/17 03:15:11;;;;;;;9.02;2.28;;;14.60;99.90;;;;;;5034557;28;20525;-82
2022/10/17 03:17:38;;;;;;;5.25;2.28;;;14.60;99.90;;;;;;5052466;28;20049;-83
2022/10/17 03:20:06;;;;;;;5.13;2.10;;;14.60;99.90;;;;;;5049182;28;20052;-83
2022/10/17 03:22:33;;;;;;;7.00;2.13;;;14.60;99.90;;;;;;5042193;28;20077;-84
2022/10/17 03:24:59;;;;;;;17.73;2.30;;;14.60;99.90;;;;;;5049406;28;20135;-83
2022/10/17 03:27:26;;;;;;;10.95;2.30;;;14.50;99.90;;;;;;5049460;28;20051;-84
2022/10/17 03:29:53;;;;;;;7.40;2.53;;;14.40;99.90;;;;;;5052054;28;20147;-83
2022/10/17 03:32:20;;;;;;;7.05;2.70;;;14.50;99.90;;;;;;5057529;28;20075;-83
2022/10/17 03:34:47;;;;;;;5.43;2.42;;;14.50;99.90;;;;;;5039626;28;20045;-84
2022/10/17 03:37:13;;;;;;;10.00;3.00;;;14.50;99.90;;;;;;5049011;28;20499;-83
2022/10/17 03:39:40;;;;;;;3.75;2.10;;;14.50;99.90;;;;;;5044519;28;20148;-83
2022/10/17 03:42:07;;;;;;;9.07;2.33;;;14.50;99.90;;;;;;5052917;28;20135;-84
2022/10/17 03:44:33;;;;;;;11.55;2.63;;;14.50;99.90;;;;;;5050463;28;20430;-83
2022/10/17 03:47:00;;;;;;;10.48;2.63;;;14.50;99.90;;;;;;5053244;28;20052;-84
2022/10/17 03:49:27;;;;;;;12.93;2.55;;;14.50;99.90;;;;;;5063051;28;20072;-84
2022/10/17 03:51:53;;;;;;;11.15;2.92;;;14.50;99.90;;;;;;5054104;28;20045;-84
2022/10/17 03:54:20;;;;;;;8.10;2.33;;;14.50;99.90;;;;;;5049151;28;20045;-84
2022/10/17 03:56:47;;;;;;;4.70;2.30;;;14.50;99.90;;;;;;5048217;28;20045;-84
2022/10/17 03:59:14;;;;;;;7.72;2.30;;;14.40;99.90;;;;;;5051956;28;20052;-82
2022/10/17 04:01:41;;;;;;;9.75;2.88;;;14.40;99.90;;;;;;5042896;28;20128;-84
2022/10/17 04:04:09;;;;;;;9.02;2.40;;;14.40;99.90;;;;;;5050983;28;20054;-85
2022/10/17 04:06:36;;;;;;;5.65;2.70;;;14.40;99.90;;;;;;5045158;28;20046;-84
2022/10/17 04:09:05;;;;;;;4.93;3.35;;;14.40;99.90;;;;;;5058183;28;20132;-84
2022/10/17 04:11:32;;;;;;;12.52;3.35;;;14.30;99.90;;;;;;5054680;28;20051;-84
2022/10/17 04:13:58;;;;;;;7.80;3.25;;;14.30;99.90;;;;;;5036184;28;20116;-85
2022/10/17 04:16:26;;;;;;;3.67;2.85;;;14.40;99.90;;;;;;5044530;28;20045;-84
2022/10/17 04:18:55;;;;;;;5.32;2.95;;;14.40;99.90;;;;;;5063708;28;20053;-84
2022/10/17 04:21:23;;;;;;;7.65;2.50;;;14.30;99.90;;;;;;5057039;28;20116;-83
2022/10/17 04:23:55;;;;;;;7.80;2.63;;;14.30;99.90;;;;;;5048242;28;20525;-84
2022/10/17 04:26:22;;;;;;;4.18;2.50;;;14.30;99.90;;;;;;5042990;28;20498;-83
2022/10/17 04:28:49;;;;;;;5.88;2.50;;;14.30;99.90;;;;;;5050642;28;20052;-84
2022/10/17 04:31:17;;;;;;;10.35;2.30;;;14.30;99.90;;;;;;5049185;28;20046;-83
2022/10/17 04:33:46;;;;;;;8.20;2.33;;;14.20;99.90;;;;;;5041768;28;20045;-85
2022/10/17 04:36:16;;;;;;;5.93;2.47;;;14.20;99.90;;;;;;5040890;28;20056;-82
2022/10/17 04:38:43;;;;;;;8.85;2.25;;;14.20;99.90;;;;;;5039985;28;20057;-84
2022/10/17 04:41:14;;;;;;;10.13;2.40;;;14.20;99.90;;;;;;5053761;28;20052;-85
2022/10/17 04:43:41;;;;;;;7.07;2.35;;;14.20;99.90;;;;;;5058281;28;20136;-83
2022/10/17 04:46:14;;;;;;;8.88;2.58;;;14.20;99.90;;;;;;5040046;28;20046;-82
2022/10/17 04:48:41;;;;;;;8.38;2.70;;;14.10;99.90;;;;;;5049763;28;20095;-83
2022/10/17 04:51:17;;;;;;;7.57;2.65;;;14.10;99.90;;;;;;5044670;28;20063;-84
2022/10/17 04:53:48;;;;;;;4.88;2.53;;;14.20;99.90;;;;;;5038714;28;20439;-83
2022/10/17 04:56:18;;;;;;;7.47;2.90;;;14.10;99.90;;;;;;5048268;28;20084;-84
2022/10/17 04:58:46;;;;;;;9.63;2.17;;;14.10;99.90;;;;;;5043107;28;20411;-83
2022/10/17 05:01:18;;;;;;;5.72;2.35;;;14.10;99.90;;;;;;5048980;28;20053;-81
2022/10/17 05:03:45;;;;;;;5.22;2.85;;;14.10;99.90;;;;;;5039427;28;20489;-82
2022/10/17 05:06:15;;;;;;;4.63;2.55;;;14.10;99.90;;;;;;5046692;28;20525;-83
2022/10/17 05:08:42;;;;;;;5.65;2.67;;;14.10;99.90;;;;;;5043600;28;20052;-84
2022/10/17 05:11:21;;;;;;;6.25;2.55;;;14.00;99.90;;;;;;5054904;28;20049;-83
2022/10/17 05:13:57;;;;;;;4.45;2.45;;;13.90;99.90;;;;;;5047308;28;20057;-84
2022/10/17 05:16:25;;;;;;;8.88;2.58;;;13.90;99.90;;;;;;5043606;28;20113;-82
2022/10/17 05:18:53;;;;;;;5.30;2.40;;;13.80;99.90;;;;;;5044685;28;20137;-84
2022/10/17 05:21:22;;;;;;;8.68;2.60;;;13.90;99.90;;;;;;5046618;28;20057;-84
2022/10/17 05:23:49;;;;;;;6.75;2.40;;;13.80;99.90;;;;;;5051530;28;20052;-83
2022/10/17 05:26:16;;;;;;;6.00;2.30;;;13.80;99.90;;;;;;5041910;28;20053;-84
2022/10/17 05:28:43;;;;;;;6.57;2.90;;;13.90;99.90;;;;;;5037745;28;20077;-83
2022/10/17 05:31:10;;;;;;;7.18;2.53;;;13.90;99.90;;;;;;5050713;28;20049;-83
2022/10/17 05:33:38;;;;;;;6.93;2.65;;;13.90;99.90;;;;;;5047104;28;20061;-84
2022/10/17 05:36:05;;;;;;;8.48;2.63;;;13.80;99.90;;;;;;5045721;28;20045;-86
2022/10/17 05:38:32;;;;;;;6.03;2.42;;;13.80;99.90;;;;;;5052356;28;20109;-84
2022/10/17 05:41:04;;;;;;;10.07;2.70;;;13.80;99.90;;;;;;5048395;28;20132;-85
2022/10/17 05:43:32;;;;;;;4.38;2.95;;;13.80;99.90;;;;;;5042857;28;20551;-84
2022/10/17 05:46:02;;;;;;;9.32;3.20;;;13.80;99.90;;;;;;5052072;28;20631;-84
2022/10/17 05:48:29;;;;;;;8.32;3.00;;;13.80;99.90;;;;;;5036552;28;20447;-82
2022/10/17 05:51:01;;;;;;;5.82;2.60;;;13.80;99.90;;;;;;5048130;28;20479;-84
2022/10/17 05:53:33;;;;;;;8.73;3.45;;;13.80;99.90;;;;;;5058080;28;20048;-84
2022/10/17 05:56:04;;;;;;;5.38;3.28;;;13.80;99.90;;;;;;5062176;28;20108;-83
2022/10/17 05:58:32;;;;;;;16.38;3.63;;;13.80;99.90;;;;;;5054406;28;20055;-84
2022/10/17 06:01:16;;;;;;;9.23;3.63;;;13.80;99.90;;;;;;5054792;28;20049;-83
2022/10/17 06:03:42;;;;;;;7.28;2.92;;;13.80;99.90;;;;;;5041233;28;20092;-84
2022/10/17 06:06:11;;;;;;;15.13;3.03;;;13.80;99.90;;;;;;5040687;28;20056;-82
2022/10/17 06:08:38;;;;;;;14.23;4.57;;;13.80;99.90;;;;;;5039222;28;20060;-84
2022/10/17 06:11:05;;;;;;;13.57;3.15;;;13.70;99.90;;;;;;5053220;28;20053;-84
2022/10/17 06:13:37;;;;;;;8.55;3.10;;;13.70;99.90;;;;;;5058968;28;20056;-82
2022/10/17 06:16:04;;;;;;;4.93;2.35;;;13.80;99.90;;;;;;5051991;28;20048;-83
2022/10/17 06:18:31;;;;;;;5.78;2.20;;;13.70;99.90;;;;;;5050116;28;20049;-83
2022/10/17 06:21:03;;;;;;;6.03;2.55;;;13.80;99.90;;;;;;5051180;28;20064;-82
2022/10/17 06:23:30;;;;;;;7.22;2.92;;;13.80;99.90;;;;;;5050652;28;20049;-83
2022/10/17 06:26:01;;;;;;;9.73;2.80;;;13.80;99.90;;;;;;5027555;28;20057;-84
2022/10/17 06:28:27;;;;;;;8.63;2.92;;;13.80;99.90;;;;;;5053693;28;20535;-83
2022/10/17 06:30:54;;;;;;;5.63;2.67;;;13.80;99.90;;;;;;5038421;28;20492;-82
2022/10/17 06:33:22;;;;;;;10.55;2.80;;;13.90;99.90;;;;;;5045712;28;20124;-83
2022/10/17 06:35:55;;;;;;;10.32;2.45;;;13.80;99.90;;;;;;5038456;28;20079;-83
2022/10/17 06:38:22;;;;;;;10.15;2.53;;;13.90;99.90;;;;;;5055132;28;20159;-83
2022/10/17 06:40:49;;;;;;;12.65;2.97;;;13.90;99.90;;;;;;5037161;28;20132;-83
2022/10/17 06:43:16;;;;;;;4.10;2.78;;;13.80;99.90;;;;;;5045209;28;20117;-83
2022/10/17 06:45:45;;;;;;;10.57;3.95;;;13.90;99.90;;;;;;5045518;28;20067;-83
2022/10/17 06:48:12;;;;;;;12.70;3.53;;;13.90;99.90;;;;;;5042141;28;20434;-83
2022/10/17 06:50:39;;;;;;;8.55;4.15;;;13.80;99.90;;;;;;5040688;28;20052;-84
2022/10/17 06:53:06;;;;;;;9.85;4.20;;;13.90;99.90;;;;;;5027892;28;20045;-84
2022/10/17 06:55:33;;;;;;;7.90;3.75;;;13.90;99.90;;;;;;5045947;28;20059;-82
2022/10/17 06:58:00;;;;;;;4.47;3.90;;;14.00;99.90;;;;;;5036787;28;20412;-83
2022/10/17 07:00:27;;;;;;;8.57;4.40;;;14.00;99.90;;;;;;5025426;28;20494;-83
2022/10/17 07:02:53;;;;;;;9.90;3.85;;;14.10;99.90;;;;;;5038652;28;20061;-83
2022/10/17 07:05:20;;;;;;;8.55;4.28;;;14.10;99.90;;;;;;5048319;28;20055;-83
2022/10/17 07:07:47;;;;;;;8.48;3.90;;;14.20;99.90;;;;;;5050393;28;20053;-84
2022/10/17 07:10:17;;;;;;;;;;;14.20;99.90;;;;;;5066344;28;20075;-83
2022/10/17 07:12:44;;;;;;;5.50;2.65;;;14.30;99.90;;;;;;5063745;28;19977;-86
2022/10/17 07:15:11;;;;;;;9.88;2.53;;;14.30;99.90;;;;;;5068196;28;20053;-83
2022/10/17 07:17:38;;;;;;;10.48;2.58;;;14.30;99.90;;;;;;5065926;28;20117;-83
2022/10/17 07:20:05;;;;;;;8.70;2.30;;;14.40;99.90;;;;;;5059192;28;20045;-84
2022/10/17 07:22:32;;;;;;;6.45;2.97;;;14.40;99.90;;;;;;5043642;28;20056;-83
2022/10/17 07:24:58;;;;;;;8.55;2.63;;;14.50;99.90;;;;;;5049984;28;20399;-83
2022/10/17 07:27:25;;;;;;;11.30;3.10;;;14.50;99.90;;;;;;5032748;28;20495;-84
2022/10/17 07:29:52;;;;;;;9.77;2.70;;;14.50;99.90;;;;;;5038954;28;20052;-83
2022/10/17 07:32:19;;;;;;;14.57;2.97;;;14.60;99.90;;;;;;5039353;28;20037;-83
2022/10/17 07:34:46;;;;;;;6.50;3.20;;;14.60;99.90;;;;;;5024862;28;20040;-83
2022/10/17 07:37:13;;;;;;;5.88;3.08;;;14.70;99.90;;;;;;5024320;28;20046;-84
2022/10/17 07:39:39;;;;;;;11.23;3.28;;;14.80;99.90;;;;;;5041908;28;20049;-84
2022/10/17 07:42:06;;;;;;;13.05;3.80;;;14.80;99.90;;;;;;5050135;28;20517;-84
2022/10/17 07:44:34;;;;;;;10.82;4.50;;;14.80;99.90;;;;;;5043164;28;20049;-84
2022/10/17 07:47:01;;;;;;;7.05;4.20;;;15.00;99.90;;;;;;5035614;28;20491;-84
2022/10/17 07:49:28;;;;;;;13.30;4.63;;;15.00;99.90;;;;;;5050807;28;20443;-84
2022/10/17 07:51:55;;;;;;;9.70;4.47;;;15.00;99.90;;;;;;5046959;28;20056;-83
2022/10/17 07:54:21;;;;;;;6.78;5.10;;;15.10;99.90;;;;;;5042948;28;20059;-83
2022/10/17 07:56:49;;;;;;;12.45;4.95;;;15.20;99.90;;;;;;5045674;28;20053;-83
2022/10/17 07:59:17;;;;;;;7.22;4.45;;;15.20;99.90;;;;;;5043368;28;20646;-85
2022/10/17 08:01:44;;;;;;;9.60;4.10;;;15.30;99.90;;;;;;5055453;28;20052;-83
2022/10/17 08:04:11;;;;;;;10.75;5.68;;;15.30;99.90;;;;;;5041237;28;20048;-84
2022/10/17 08:06:37;;;;;;;8.82;4.82;;;15.30;99.90;;;;;;5025668;28;20052;-84
2022/10/17 08:09:04;;;;;;;7.43;4.50;;;15.40;99.90;;;;;;5076741;22;20049;-83
2022/10/17 08:11:31;;;;;;;9.80;4.72;;;15.40;99.90;;;;;;5046601;28;20482;-85
2022/10/17 08:13:58;;;;;;;19.60;8.60;;;15.50;99.90;;;;;;5054527;28;20053;-84
2022/10/17 08:16:24;;;;;;;10.27;6.95;;;15.50;99.90;;;;;;5031470;28;20051;-84
2022/10/17 08:18:51;;;;;;;20.75;6.03;;;15.60;99.90;;;;;;5036358;28;20064;-85
2022/10/17 08:21:18;;;;;;;11.43;4.13;;;15.60;99.90;;;;;;5026211;28;20054;-84
2022/10/17 08:23:44;;;;;;;7.75;4.15;;;15.60;99.90;;;;;;5027193;28;20422;-85
2022/10/17 08:26:15;;;;;;;9.38;4.13;;;15.60;99.90;;;;;;5023915;28;20450;-83
2022/10/17 08:28:42;;;;;;;6.32;3.88;;;15.60;99.90;;;;;;5027761;28;20500;-83
2022/10/17 08:31:12;;;;;;;10.23;3.75;;;15.70;99.90;;;;;;5018157;28;20050;-83
2022/10/17 08:33:39;;;;;;;5.13;3.35;;;15.70;99.90;;;;;;5034621;28;20052;-81
2022/10/17 08:36:07;;;;;;;5.25;4.22;;;15.80;99.90;;;;;;5034316;28;20084;-82
2022/10/17 08:38:35;;;;;;;8.30;3.40;;;15.80;99.90;;;;;;5029366;28;20083;-84
2022/10/17 08:41:12;;;;;;;6.28;2.97;;;15.80;99.90;;;;;;5028545;28;20073;-84
2022/10/17 08:44:09;;;;;;;8.23;3.03;;;15.90;99.90;;;;;;5016084;28;20051;-84
2022/10/17 08:46:40;;;;;;;3.45;2.75;;;15.90;99.90;;;;;;5028382;28;20054;-84
2022/10/17 08:49:10;;;;;;;;;;;16.00;99.90;;;;;;5029820;28;20052;-85
2022/10/17 08:51:46;;;;;;;5.93;2.70;;;16.00;99.90;;;;;;5016999;28;20409;-85
2022/10/17 08:54:23;;;;;;;7.93;2.92;;;16.10;99.90;;;;;;5031130;28;20042;-85
2022/10/17 08:56:54;;;;;;;8.40;3.03;;;16.10;99.90;;;;;;5025645;28;20054;-85
2022/10/17 08:59:29;;;;;;;8.13;3.08;;;16.10;99.90;;;;;;5010013;28;20057;-85
2022/10/17 09:02:14;;;;;;;6.32;2.92;;;16.10;99.90;;;;;;5015027;28;20180;-84
2022/10/17 09:05:00;;;;;;;11.75;2.70;;;16.20;99.90;;;;;;5028113;28;20125;-85
2022/10/17 09:07:37;;;;;;;4.47;2.30;;;16.20;99.90;;;;;;5007836;28;20116;-85
2022/10/17 09:10:16;;;;;;;11.05;2.90;;;16.30;99.90;;;;;;5008741;28;20048;-85
2022/10/17 09:13:21;;;;;;;10.45;2.15;;;16.40;99.90;;;;;;5031306;28;20069;-85
2022/10/17 09:16:13;;;;;;;4.95;2.22;;;16.40;99.90;;;;;;5012944;28;20076;-84
2022/10/17 09:18:44;;;;;;;11.07;2.70;;;16.50;99.90;;;;;;5027014;28;20054;-82
2022/10/17 09:21:23;;;;;;;6.70;2.42;;;16.60;99.90;;;;;;5034148;28;20049;-81
2022/10/17 09:23:53;;;;;;;4.55;2.45;;;16.60;99.90;;;;;;5038100;28;20446;-81
2022/10/17 09:26:35;;;;;;;4.07;2.80;;;16.70;99.90;;;;;;5034754;28;20049;-82
2022/10/17 09:29:09;;;;;;;9.10;3.20;;;16.70;99.90;;;;;;5035495;28;20091;-81
2022/10/17 09:31:50;;;;;;;8.68;2.50;;;16.80;99.90;;;;;;5028108;28;20046;-82
2022/10/17 09:34:16;;;;;;;9.23;2.95;;;17.00;99.90;;;;;;5030010;28;20052;-81
2022/10/17 09:36:43;;;;;;;19.35;3.75;;;17.00;99.90;;;;;;5029369;28;20041;-81
2022/10/17 09:39:19;;;;;;;7.25;2.58;;;17.10;99.90;;;;;;5021811;28;20088;-83
2022/10/17 09:41:54;;;;;;;11.20;2.42;;;17.10;99.90;;;;;;5034450;28;20158;-83
2022/10/17 09:44:29;;;;;;;6.45;2.80;;;17.30;99.90;;;;;;5022173;28;20075;-82
2022/10/17 09:46:56;;;;;;;11.05;2.40;;;17.40;99.90;;;;;;5036684;28;20057;-80
2022/10/17 09:49:31;;;;;;;4.45;2.63;;;17.50;99.90;;;;;;5034361;28;20081;-81
2022/10/17 09:52:03;;;;;;;6.43;2.38;;;17.60;99.90;;;;;;5016361;28;20042;-80
2022/10/17 09:55:12;;;;;;;3.88;2.25;;;17.70;99.90;;;;;;5033965;28;20042;-81
2022/10/17 09:57:58;;;;;;;4.97;2.10;;;17.80;99.90;;;;;;5032357;28;20121;-82
2022/10/17 10:00:33;;;;;;;9.73;2.28;;;17.90;99.90;;;;;;5037106;28;20077;-81
2022/10/17 10:03:18;;;;;;;3.60;2.17;;;18.00;99.90;;;;;;5025219;28;20053;-82
2022/10/17 10:06:05;;;;;;;7.70;2.50;;;18.00;99.90;;;;;;5037643;28;20046;-82
2022/10/17 10:08:48;;;;;;;4.35;2.15;;;18.10;99.90;;;;;;5017534;28;20054;-81
2022/10/17 10:11:16;;;;;;;2.33;1.80;;;18.10;99.90;;;;;;5028822;28;20109;-81
2022/10/17 10:13:48;;;;;;;4.40;2.10;;;18.20;99.90;;;;;;5019410;28;20049;-81
2022/10/17 10:16:30;;;;;;;4.22;2.13;;;18.30;99.90;;;;;;5020949;28;20049;-81
2022/10/17 10:18:58;;;;;;;5.78;1.67;;;18.40;99.90;;;;;;5036451;28;20450;-81
2022/10/17 10:21:26;;;;;;;3.33;1.60;;;18.50;99.90;;;;;;5028104;28;20076;-83
2022/10/17 10:24:13;;;;;;;3.95;1.50;;;18.50;99.90;;;;;;5037450;28;20431;-81
2022/10/17 10:26:44;;;;;;;4.00;1.60;;;18.50;99.90;;;;;;5021662;28;20085;-82
2022/10/17 10:29:47;;;;;;;12.82;3.13;;;18.60;99.90;;;;;;5032540;28;20052;-84
2022/10/17 10:32:27;;;;;;;4.10;1.70;;;18.70;99.90;;;;;;5029434;28;20050;-81
2022/10/17 10:35:03;;;;;;;5.20;1.42;;;18.80;99.90;;;;;;5022825;28;20053;-81
2022/10/17 10:37:45;;;;;;;4.85;1.25;;;18.90;99.90;;;;;;5040827;28;20057;-82
2022/10/17 10:40:36;;;;;;;3.25;1.60;;;19.00;99.90;;;;;;5035715;28;20060;-81
2022/10/17 10:43:05;;;;;;;4.07;1.40;;;19.20;99.90;;;;;;5031336;28;20093;-81
2022/10/17 10:45:34;;;;;;;8.77;1.70;;;19.20;99.90;;;;;;5030819;28;20132;-82
2022/10/17 10:48:30;;;;;;;7.55;1.80;;;19.40;99.90;;;;;;5035214;28;20128;-82
2022/10/17 10:51:11;;;;;;;4.85;1.88;;;19.50;99.90;;;;;;5031400;28;20045;-82
2022/10/17 10:54:35;;;;;;;3.33;1.58;;;19.60;99.90;;;;;;5040151;28;20113;-81
2022/10/17 10:57:06;;;;;;;2.80;1.40;;;19.70;99.90;;;;;;4975308;28;20065;-82
2022/10/17 10:59:42;;;;;;;;;;;19.90;99.90;;;;;;4977426;28;20070;-82
2022/10/17 11:02:20;;;;;;;4.97;1.40;;;19.90;99.90;;;;;;4995533;28;19929;-82
2022/10/17 11:05:02;;;;;;;6.95;1.67;;;20.00;99.90;;;;;;5035936;28;20073;-81
2022/10/17 11:07:33;;;;;;;5.10;1.60;;;20.00;99.90;;;;;;5035709;28;21362;-81
2022/10/17 11:10:30;;;;;;;2.38;1.75;;;20.20;99.90;;;;;;5030577;28;20084;-85
2022/10/17 11:13:33;;;;;;;;;;;;;;;;;;;;;
2022/10/17 11:17:37;;;;;;;6.00;1.88;;;20.30;99.90;;;;;;5032049;28;20717;-86
2022/10/17 11:20:05;;;;;;;2.85;1.13;;;20.40;99.90;;;;;;5025316;28;20041;-88
2022/10/17 11:25:37;;;;;;;2.63;1.10;;;20.50;99.90;;;;;;5197649;22;20041;-82
2022/10/17 11:28:15;;;;;;;2.90;1.20;;;20.50;99.90;;;;;;5018226;28;20050;-84
2022/10/17 11:30:45;;;;;;;4.45;2.03;;;20.60;99.90;;;;;;5025747;28;20045;-84
2022/10/17 11:33:32;;;;;;;;;;;20.50;99.90;;;;;;5026105;28;20058;-84
2022/10/17 11:36:04;;;;;;;4.60;1.38;;;20.60;99.90;;;;;;5003871;28;19929;-82
2022/10/17 11:38:40;;;;;;;3.50;1.52;;;20.60;99.90;;;;;;5028755;28;20049;-84
2022/10/17 11:41:12;;;;;;;3.88;1.17;;;20.60;99.90;;;;;;5009721;28;20046;-83
2022/10/17 11:46:18;;;;;;;2.92;1.30;;;20.70;99.90;;;;;;5006698;28;20418;-85
2022/10/17 11:48:56;;;;;;;5.35;1.30;;;20.70;99.90;;;;;;5012513;28;20050;-83
2022/10/17 11:51:23;;;;;;;4.43;1.33;;;20.70;99.90;;;;;;5023258;28;20049;-83
2022/10/17 11:54:13;;;;;;;3.88;1.10;;;20.80;99.90;;;;;;5022666;28;20403;-81
2022/10/17 11:57:18;;;;;;;3.65;1.30;;;20.80;99.90;;;;;;4985629;28;20114;-82
2022/10/17 11:59:58;;;;;;;4.60;1.20;;;21.00;99.90;;;;;;5021288;28;20053;-82
2022/10/17 12:02:24;;;;;;;3.30;1.27;;;20.90;99.90;;;;;;5019133;28;20053;-82
2022/10/17 12:05:00;;;;;;;1.98;0.95;;;20.90;99.90;;;;;;5021219;28;20117;-82
2022/10/17 12:08:12;;;;;;;1.80;0.90;;;21.00;99.90;;;;;;5020199;28;20471;-82
2022/10/17 12:10:51;;;;;;;2.15;1.05;;;20.90;99.90;;;;;;5021145;28;20049;-82
2022/10/17 12:13:26;;;;;;;3.22;1.20;;;20.90;99.90;;;;;;5021012;28;20060;-82
2022/10/17 12:16:19;;;;;;;6.03;2.10;;;20.90;99.90;;;;;;5021531;28;20053;-84
2022/10/17 12:19:01;;;;;;;8.82;2.75;;;20.90;99.90;;;;;;4993630;28;20046;-82
2022/10/17 12:22:20;;;;;;;1.77;1.33;;;20.90;99.90;;;;;;5020017;28;20052;-82
2022/10/17 12:25:03;;;;;;;4.82;1.45;;;20.90;99.90;;;;;;4994475;28;20065;-81
2022/10/17 12:27:32;;;;;;;11.27;1.40;;;20.90;99.90;;;;;;5029602;28;20049;-81
2022/10/17 12:30:20;;;;;;;6.97;1.40;;;20.90;99.90;;;;;;5030279;28;20046;-78
2022/10/17 12:33:04;;;;;;;4.85;1.20;;;20.90;99.90;;;;;;5029837;28;20078;-83
2022/10/17 12:35:35;;;;;;;3.50;1.40;;;20.90;99.90;;;;;;5019099;28;20442;-84
2022/10/17 12:38:16;;;;;;;4.45;1.15;;;20.90;99.90;;;;;;5019731;28;20042;-84
2022/10/17 12:40:42;;;;;;;4.50;1.38;;;21.00;99.90;;;;;;4997251;28;20503;-86
2022/10/17 12:43:14;;;;;;;5.32;1.10;;;21.00;99.90;;;;;;5013755;28;20057;-84
2022/10/17 12:45:55;;;;;;;7.80;1.58;;;21.00;99.90;;;;;;5011644;28;20096;-86
2022/10/17 12:48:36;;;;;;;3.67;1.65;;;21.10;99.90;;;;;;5014293;28;20065;-86
2022/10/17 12:51:11;;;;;;;3.08;1.23;;;21.10;99.90;;;;;;5012765;28;20116;-86
2022/10/17 12:54:05;;;;;;;3.08;1.15;;;21.10;99.90;;;;;;5012869;28;20042;-86
2022/10/17 12:56:44;;;;;;;2.65;1.17;;;21.20;99.90;;;;;;5014245;28;20061;-86
2022/10/17 12:59:20;;;;;;;2.58;1.30;;;21.20;99.90;;;;;;4995237;28;20051;-86
2022/10/17 13:01:51;;;;;;;4.65;1.10;;;21.20;99.90;;;;;;5003907;28;20058;-86
2022/10/17 13:04:19;;;;;;;1.73;1.10;;;21.20;99.90;;;;;;4995147;28;20590;-86
2022/10/17 13:06:49;;;;;;;5.38;1.02;;;21.30;99.90;;;;;;5012867;28;20050;-86
2022/10/17 13:09:19;;;;;;;2.55;1.20;;;21.30;99.90;;;;;;4994811;28;20046;-85
2022/10/17 13:11:48;;;;;;;4.25;1.23;;;21.30;99.90;;;;;;4996475;28;20057;-85
2022/10/17 13:14:17;;;;;;;4.32;1.30;;;21.40;99.90;;;;;;5016698;28;20499;-87
2022/10/17 13:16:52;;;;;;;3.97;1.50;;;21.50;99.90;;;;;;4999618;28;20058;-86
2022/10/17 13:19:22;;;;;;;8.25;2.55;;;21.50;99.90;;;;;;5015750;28;20495;-86
2022/10/17 13:22:01;;;;;;;3.35;1.35;;;21.50;99.90;;;;;;5012550;28;20049;-86
2022/10/17 13:24:39;;;;;;;2.17;1.13;;;21.60;99.90;;;;;;5003128;28;20049;-86
2022/10/17 13:27:27;;;;;;;1.88;1.10;;;21.60;99.90;;;;;;5006711;28;20046;-86